createdAt,value
2023-03-06T00:00:26.680Z,67.72
2023-03-06T00:02:53.869Z,67.38
2023-03-06T00:05:20.649Z,67.86
2023-03-06T00:07:47.350Z,67.86
2023-03-06T00:10:16.847Z,68.01
2023-03-06T00:12:43.676Z,67.91
2023-03-06T00:15:11.572Z,67.94
2023-03-06T00:17:38.524Z,68.15
2023-03-06T00:20:06.205Z,67.96
2023-03-06T00:22:33.099Z,68.11
2023-03-06T00:25:00.627Z,68.04
2023-03-06T00:27:27.202Z,67.98
2023-03-06T00:29:57.753Z,68.05
2023-03-06T00:32:25.245Z,68.00
2023-03-06T00:34:53.602Z,68.14
2023-03-06T00:37:21.505Z,68.00
2023-03-06T00:39:49.519Z,67.83
2023-03-06T00:42:17.845Z,67.53
2023-03-06T00:44:45.216Z,68.06
2023-03-06T00:47:12.529Z,68.10
2023-03-06T00:49:39.514Z,68.07
2023-03-06T00:52:06.088Z,68.47
2023-03-06T00:54:32.641Z,68.51
2023-03-06T00:56:59.289Z,68.62
2023-03-06T00:59:27.574Z,68.17
2023-03-06T01:01:54.993Z,68.53
2023-03-06T01:04:21.863Z,68.73
2023-03-06T01:06:48.658Z,68.84
2023-03-06T01:09:15.458Z,68.17
2023-03-06T01:11:42.032Z,68.05
2023-03-06T01:14:08.617Z,68.22
2023-03-06T01:16:35.369Z,68.16
2023-03-06T01:19:02.037Z,68.18
2023-03-06T01:21:28.770Z,68.51
2023-03-06T01:23:55.413Z,68.45
2023-03-06T01:26:22.092Z,68.55
2023-03-06T01:28:48.650Z,68.48
2023-03-06T01:31:15.395Z,68.83
2023-03-06T01:33:41.975Z,68.70
2023-03-06T01:36:11.334Z,68.61
2023-03-06T01:38:38.171Z,68.62
2023-03-06T01:41:05.210Z,68.06
2023-03-06T01:43:34.535Z,68.56
2023-03-06T01:46:33.777Z,68.12
2023-03-06T01:49:12.872Z,68.22
2023-03-06T01:51:57.644Z,68.71
2023-03-06T01:54:41.576Z,69.33
2023-03-06T01:57:19.284Z,69.34
2023-03-06T01:59:53.010Z,69.73
2023-03-06T02:02:20.667Z,69.91
2023-03-06T02:04:48.118Z,69.78
2023-03-06T02:07:17.122Z,70.05
2023-03-06T02:09:43.713Z,70.23
2023-03-06T02:12:14.402Z,70.20
2023-03-06T02:14:42.181Z,70.03
2023-03-06T02:17:11.735Z,70.67
2023-03-06T02:19:44.200Z,70.36
2023-03-06T02:22:11.297Z,70.33
2023-03-06T02:24:51.725Z,70.03
2023-03-06T02:27:19.513Z,70.38
2023-03-06T02:29:46.091Z,70.29
2023-03-06T02:32:12.769Z,70.05
2023-03-06T02:34:39.289Z,70.15
2023-03-06T02:37:11.013Z,70.49
2023-03-06T02:39:44.961Z,71.66
2023-03-06T02:42:21.110Z,71.02
2023-03-06T02:44:48.906Z,71.34
2023-03-06T02:47:15.488Z,71.25
2023-03-06T02:49:42.039Z,70.92
2023-03-06T02:52:08.662Z,70.56
2023-03-06T02:54:35.222Z,70.67
2023-03-06T02:57:01.772Z,70.49
2023-03-06T02:59:28.407Z,70.28
2023-03-06T03:01:54.954Z,70.88
2023-03-06T03:04:21.593Z,70.06
2023-03-06T03:06:48.188Z,70.32
2023-03-06T03:09:14.796Z,69.94
2023-03-06T03:11:41.332Z,70.16
2023-03-06T03:14:07.996Z,69.87
2023-03-06T03:16:34.669Z,70.09
2023-03-06T03:19:01.215Z,69.71
2023-03-06T03:21:27.744Z,69.52
2023-03-06T03:23:54.297Z,69.59
2023-03-06T03:26:22.040Z,69.96
2023-03-06T03:28:48.680Z,69.77
2023-03-06T03:31:15.336Z,69.60
2023-03-06T03:33:42.045Z,69.45
2023-03-06T03:36:08.929Z,69.90
2023-03-06T03:38:35.772Z,69.29
2023-03-06T03:41:02.780Z,69.94
2023-03-06T03:43:29.379Z,69.86
2023-03-06T03:45:55.954Z,69.51
2023-03-06T03:48:22.597Z,69.47
2023-03-06T03:50:49.167Z,69.02
2023-03-06T03:53:15.770Z,69.03
2023-03-06T03:55:42.370Z,69.70
2023-03-06T03:58:08.934Z,69.33
2023-03-06T04:00:35.490Z,69.90
2023-03-06T04:03:02.040Z,69.43
2023-03-06T04:05:28.655Z,69.54
2023-03-06T04:07:55.297Z,69.61
2023-03-06T04:10:21.911Z,69.50
2023-03-06T04:12:48.498Z,69.54
2023-03-06T04:15:15.069Z,69.76
2023-03-06T04:17:41.652Z,69.98
2023-03-06T04:20:09.061Z,69.68
2023-03-06T04:22:35.616Z,69.78
2023-03-06T04:25:02.184Z,69.85
2023-03-06T04:27:28.734Z,70.12
2023-03-06T04:29:56.409Z,69.35
2023-03-06T04:32:24.057Z,69.58
2023-03-06T04:34:50.905Z,69.49
2023-03-06T04:37:22.696Z,69.56
2023-03-06T04:39:49.681Z,69.63
2023-03-06T04:42:16.305Z,69.11
2023-03-06T04:44:42.879Z,68.93
2023-03-06T04:47:09.576Z,69.43
2023-03-06T04:49:36.484Z,69.31
2023-03-06T04:52:03.789Z,69.68
2023-03-06T04:54:30.398Z,68.72
2023-03-06T04:56:57.355Z,69.47
2023-03-06T04:59:23.984Z,70.42
2023-03-06T05:01:50.617Z,70.26
2023-03-06T05:04:17.184Z,70.01
2023-03-06T05:06:43.810Z,69.62
2023-03-06T05:09:10.401Z,69.28
2023-03-06T05:11:36.952Z,69.62
2023-03-06T05:14:03.633Z,69.92
2023-03-06T05:16:30.231Z,70.19
2023-03-06T05:18:56.789Z,71.28
2023-03-06T05:21:23.403Z,71.56
2023-03-06T05:23:50.104Z,71.41
2023-03-06T05:26:16.773Z,70.75
2023-03-06T05:28:43.604Z,70.56
2023-03-06T05:31:10.369Z,70.78
2023-03-06T05:33:37.269Z,70.41
2023-03-06T05:36:04.255Z,71.54
2023-03-06T05:38:33.316Z,71.86
2023-03-06T05:41:00.131Z,71.36
2023-03-06T05:43:26.808Z,71.11
2023-03-06T05:46:01.683Z,71.08
2023-03-06T05:48:28.439Z,71.83
2023-03-06T05:50:56.750Z,72.19
2023-03-06T05:53:23.357Z,72.11
2023-03-06T05:56:01.495Z,71.86
2023-03-06T05:58:30.356Z,72.13
2023-03-06T06:00:57.251Z,72.26
2023-03-06T06:03:24.764Z,72.04
2023-03-06T06:05:51.794Z,72.63
2023-03-06T06:08:18.859Z,73.22
2023-03-06T06:10:45.534Z,73.83
2023-03-06T06:13:12.100Z,74.76
2023-03-06T06:15:39.062Z,74.77
2023-03-06T06:18:05.660Z,74.72
2023-03-06T06:20:32.331Z,75.37
2023-03-06T06:22:58.857Z,75.28
2023-03-06T06:25:25.487Z,75.21
2023-03-06T06:27:55.270Z,73.97
2023-03-06T06:30:22.437Z,73.61
2023-03-06T06:32:49.068Z,73.23
2023-03-06T06:35:15.984Z,72.51
2023-03-06T06:37:42.590Z,72.31
2023-03-06T06:40:09.878Z,71.73
2023-03-06T06:42:39.861Z,72.28
2023-03-06T06:45:08.265Z,72.39
2023-03-06T06:47:34.853Z,72.60
2023-03-06T06:50:01.490Z,72.26
2023-03-06T06:52:28.068Z,72.12
2023-03-06T06:54:55.072Z,71.71
2023-03-06T06:57:21.904Z,71.45
2023-03-06T06:59:48.480Z,71.54
2023-03-06T07:02:15.974Z,71.36
2023-03-06T07:05:00.360Z,71.50
2023-03-06T07:07:29.908Z,70.01
2023-03-06T07:09:56.733Z,69.78
2023-03-06T07:12:23.327Z,69.93
2023-03-06T07:14:49.983Z,70.10
2023-03-06T07:17:16.595Z,70.05
2023-03-06T07:19:43.199Z,70.29
2023-03-06T07:22:09.921Z,69.91
2023-03-06T07:24:36.517Z,69.62
2023-03-06T07:27:03.163Z,69.51
2023-03-06T07:29:29.757Z,68.87
2023-03-06T07:31:56.404Z,67.88
2023-03-06T07:34:23.143Z,68.67
2023-03-06T07:36:50.880Z,68.47
2023-03-06T07:39:17.736Z,67.99
2023-03-06T07:41:44.331Z,68.63
2023-03-06T07:44:10.908Z,68.32
2023-03-06T07:46:37.600Z,68.24
2023-03-06T07:49:04.336Z,68.25
2023-03-06T07:51:30.901Z,67.95
2023-03-06T07:53:57.478Z,66.87
2023-03-06T07:56:24.068Z,66.68
2023-03-06T07:58:50.683Z,66.94
2023-03-06T08:01:20.340Z,67.61
2023-03-06T08:03:47.430Z,67.73
2023-03-06T08:06:27.186Z,66.73
2023-03-06T08:08:55.646Z,66.95
2023-03-06T08:11:25.615Z,66.63
2023-03-06T08:13:53.054Z,66.38
2023-03-06T08:16:26.005Z,66.44
2023-03-06T08:18:53.013Z,66.69
2023-03-06T08:21:22.335Z,67.11
2023-03-06T08:23:49.076Z,67.03
2023-03-06T08:26:24.450Z,66.98
2023-03-06T08:28:53.161Z,67.56
2023-03-06T08:31:35.346Z,67.56
2023-03-06T08:34:04.751Z,68.76
2023-03-06T08:36:31.474Z,66.73
2023-03-06T08:38:58.807Z,67.17
2023-03-06T08:41:25.722Z,67.50
2023-03-06T08:43:52.423Z,67.85
2023-03-06T08:46:20.744Z,68.92
2023-03-06T08:48:48.243Z,69.71
2023-03-06T08:51:16.101Z,67.98
2023-03-06T08:53:44.151Z,66.54
2023-03-06T08:56:28.904Z,67.23
2023-03-06T08:58:57.157Z,66.28
2023-03-06T09:01:26.794Z,65.51
2023-03-06T09:03:55.098Z,64.59
2023-03-06T09:06:22.485Z,62.10
2023-03-06T09:08:51.665Z,60.69
2023-03-06T09:11:23.002Z,59.91
2023-03-06T09:13:49.658Z,60.10
2023-03-06T09:16:16.332Z,59.59
2023-03-06T09:18:42.969Z,58.58
2023-03-06T09:21:10.543Z,58.03
2023-03-06T09:23:39.472Z,57.01
2023-03-06T09:26:07.092Z,57.23
2023-03-06T09:28:36.673Z,57.63
2023-03-06T09:31:11.912Z,57.74
2023-03-06T09:33:39.126Z,58.28
2023-03-06T09:36:07.500Z,58.09
2023-03-06T09:38:34.803Z,56.26
2023-03-06T09:41:44.877Z,54.73
2023-03-06T09:44:21.523Z,54.07
2023-03-06T09:46:53.993Z,52.80
2023-03-06T09:49:35.874Z,52.20
2023-03-06T09:52:17.698Z,50.53
2023-03-06T09:54:49.476Z,50.25
2023-03-06T09:57:26.866Z,51.95
2023-03-06T10:00:03.874Z,51.93
2023-03-06T10:02:53.615Z,51.79
2023-03-06T10:05:26.055Z,51.19
2023-03-06T10:08:12.163Z,50.50
2023-03-06T10:10:49.918Z,50.10
2023-03-06T10:13:28.252Z,50.02
2023-03-06T10:16:03.772Z,50.37
2023-03-06T10:18:30.468Z,50.95
2023-03-06T10:21:18.493Z,50.01
2023-03-06T10:24:22.393Z,50.81
2023-03-06T10:27:31.642Z,51.18
2023-03-06T10:30:12.265Z,51.32
2023-03-06T10:32:51.178Z,51.50
2023-03-06T10:35:25.677Z,51.51
2023-03-06T10:38:00.424Z,51.81
2023-03-06T10:40:35.429Z,52.13
2023-03-06T10:43:11.499Z,52.63
2023-03-06T10:45:50.832Z,53.05
2023-03-06T10:48:21.221Z,53.24
2023-03-06T10:50:48.412Z,53.62
2023-03-06T10:53:29.225Z,53.86
2023-03-06T10:55:58.957Z,53.82
2023-03-06T10:58:32.869Z,53.76
2023-03-06T11:01:20.708Z,52.71
2023-03-06T11:03:47.908Z,51.60
2023-03-06T11:06:35.181Z,50.99
2023-03-06T11:09:23.185Z,51.98
2023-03-06T11:11:52.678Z,51.47
2023-03-06T11:14:27.492Z,51.72
2023-03-06T11:16:54.462Z,50.92
2023-03-06T11:19:28.062Z,50.39
2023-03-06T11:22:07.282Z,51.67
2023-03-06T11:24:39.540Z,51.50
2023-03-06T11:27:42.580Z,50.89
2023-03-06T11:30:18.356Z,51.28
2023-03-06T11:32:55.335Z,51.70
2023-03-06T11:35:28.469Z,51.14
2023-03-06T11:38:06.819Z,50.81
2023-03-06T11:40:57.853Z,50.77
2023-03-06T11:44:05.171Z,51.28
2023-03-06T11:46:40.295Z,49.74
2023-03-06T11:49:32.135Z,50.16
2023-03-06T11:52:06.432Z,50.71
2023-03-06T11:54:33.713Z,49.55
2023-03-06T11:57:06.653Z,49.79
2023-03-06T11:59:38.983Z,49.84
2023-03-06T12:02:14.626Z,50.92
2023-03-06T12:05:09.110Z,50.45
2023-03-06T12:07:46.545Z,50.61
2023-03-06T12:10:16.040Z,50.45
2023-03-06T12:13:10.264Z,50.22
2023-03-06T12:15:58.577Z,50.80
2023-03-06T12:18:46.947Z,50.97
2023-03-06T12:21:54.568Z,50.88
2023-03-06T12:24:58.484Z,51.15
2023-03-06T12:27:37.068Z,50.69
2023-03-06T12:30:27.489Z,51.23
2023-03-06T12:33:26.382Z,50.37
2023-03-06T12:36:25.277Z,51.00
2023-03-06T12:38:57.561Z,50.66
2023-03-06T12:41:47.584Z,50.77
2023-03-06T12:44:52.586Z,50.58
2023-03-06T12:47:21.742Z,50.62
2023-03-06T12:50:23.108Z,50.51
2023-03-06T12:52:52.116Z,50.40
2023-03-06T12:55:24.317Z,50.76
2023-03-06T12:57:53.043Z,51.44
2023-03-06T13:00:34.555Z,51.47
2023-03-06T13:03:01.058Z,51.75
2023-03-06T13:06:00.230Z,52.07
2023-03-06T13:08:59.354Z,51.34
2023-03-06T13:11:36.192Z,51.86
2023-03-06T13:14:54.390Z,51.72
2023-03-06T13:17:26.414Z,52.37
2023-03-06T13:20:14.812Z,52.00
2023-03-06T13:22:43.661Z,52.04
2023-03-06T13:25:19.318Z,52.45
2023-03-06T13:27:52.235Z,53.64
2023-03-06T13:30:23.596Z,53.48
2023-03-06T13:32:52.850Z,53.59
2023-03-06T13:35:34.168Z,54.77
2023-03-06T13:38:01.484Z,54.84
2023-03-06T13:40:31.773Z,55.15
2023-03-06T13:43:07.324Z,55.47
2023-03-06T13:45:39.467Z,55.81
2023-03-06T13:48:30.197Z,56.44
2023-03-06T13:50:55.743Z,56.74
2023-03-06T13:53:40.640Z,57.57
2023-03-06T13:56:25.840Z,57.37
2023-03-06T13:59:16.777Z,57.98
2023-03-06T14:02:01.490Z,57.86
2023-03-06T14:04:58.664Z,58.29
2023-03-06T14:07:41.731Z,58.89
2023-03-06T14:10:08.281Z,59.46
2023-03-06T14:12:39.342Z,59.35
2023-03-06T14:15:23.263Z,59.46
2023-03-06T14:18:07.746Z,59.83
2023-03-06T14:20:42.947Z,60.32
2023-03-06T14:23:21.713Z,60.49
2023-03-06T14:25:55.172Z,60.29
2023-03-06T14:28:29.990Z,60.87
2023-03-06T14:30:59.191Z,61.06
2023-03-06T14:33:37.929Z,61.24
2023-03-06T14:36:09.143Z,61.28
2023-03-06T14:38:42.310Z,61.15
2023-03-06T14:41:11.737Z,61.58
2023-03-06T14:43:39.480Z,61.77
2023-03-06T14:46:06.897Z,61.70
2023-03-06T14:48:45.557Z,62.94
2023-03-06T14:51:21.156Z,63.23
2023-03-06T14:53:53.498Z,63.18
2023-03-06T14:56:22.814Z,63.39
2023-03-06T14:58:55.537Z,63.01
2023-03-06T15:01:31.512Z,63.62
2023-03-06T15:04:01.047Z,63.80
2023-03-06T15:06:33.469Z,63.21
2023-03-06T15:09:17.605Z,63.27
2023-03-06T15:12:02.579Z,63.26
2023-03-06T15:14:48.149Z,63.56
2023-03-06T15:17:17.689Z,63.93
2023-03-06T15:19:49.430Z,64.10
2023-03-06T15:22:31.311Z,63.74
2023-03-06T15:25:16.079Z,64.05
2023-03-06T15:27:48.908Z,63.60
2023-03-06T15:30:30.664Z,63.69
2023-03-06T15:33:26.169Z,64.25
2023-03-06T15:35:57.655Z,64.09
2023-03-06T15:38:45.492Z,63.81
2023-03-06T15:41:33.470Z,64.16
2023-03-06T15:44:02.305Z,64.48
2023-03-06T15:46:29.668Z,64.72
2023-03-06T15:49:04.744Z,64.42
2023-03-06T15:51:32.212Z,65.06
2023-03-06T15:54:11.273Z,64.95
2023-03-06T15:56:44.336Z,65.08
2023-03-06T15:59:20.056Z,65.14
2023-03-06T16:01:46.699Z,65.15
2023-03-06T16:04:13.987Z,65.49
2023-03-06T16:06:40.795Z,65.46
2023-03-06T16:09:07.350Z,65.64
2023-03-06T16:11:43.262Z,65.78
2023-03-06T16:14:18.950Z,66.11
2023-03-06T16:16:45.994Z,66.28
2023-03-06T16:19:26.386Z,65.86
2023-03-06T16:21:54.379Z,66.08
2023-03-06T16:24:20.972Z,66.79
2023-03-06T16:26:52.593Z,66.85
2023-03-06T16:29:24.847Z,66.85
2023-03-06T16:31:51.887Z,67.16
2023-03-06T16:34:21.286Z,66.84
2023-03-06T16:36:49.072Z,67.69
2023-03-06T16:39:17.594Z,68.16
2023-03-06T16:41:45.881Z,67.95
2023-03-06T16:44:13.413Z,68.17
2023-03-06T16:46:42.925Z,68.46
2023-03-06T16:49:18.094Z,68.37
2023-03-06T16:51:45.457Z,68.56
2023-03-06T16:54:12.770Z,68.47
2023-03-06T16:56:39.619Z,68.96
2023-03-06T16:59:06.417Z,68.67
2023-03-06T17:01:33.160Z,69.33
2023-03-06T17:03:59.955Z,69.30
2023-03-06T17:06:26.608Z,69.11
2023-03-06T17:08:53.202Z,69.36
2023-03-06T17:11:20.509Z,69.76
2023-03-06T17:13:47.794Z,69.60
2023-03-06T17:16:16.628Z,70.25
2023-03-06T17:18:44.768Z,69.82
2023-03-06T17:21:12.103Z,69.98
2023-03-06T17:23:38.715Z,70.14
2023-03-06T17:26:12.306Z,70.02
2023-03-06T17:28:39.697Z,70.51
2023-03-06T17:31:16.452Z,70.32
2023-03-06T17:33:43.649Z,70.10
2023-03-06T17:36:10.968Z,70.07
2023-03-06T17:38:37.939Z,70.00
2023-03-06T17:41:06.232Z,69.90
2023-03-06T17:43:33.260Z,70.17
2023-03-06T17:46:11.728Z,70.88
2023-03-06T17:48:39.320Z,70.60
2023-03-06T17:51:06.443Z,70.36
2023-03-06T17:53:33.227Z,70.37
2023-03-06T17:55:59.863Z,70.73
2023-03-06T17:58:27.243Z,70.56
2023-03-06T18:00:53.968Z,70.41
2023-03-06T18:03:20.785Z,70.69
2023-03-06T18:05:47.465Z,70.99
2023-03-06T18:08:14.318Z,71.13
2023-03-06T18:10:42.519Z,71.32
2023-03-06T18:13:10.451Z,71.72
2023-03-06T18:15:41.334Z,71.88
2023-03-06T18:18:08.865Z,71.69
2023-03-06T18:20:41.125Z,71.90
2023-03-06T18:23:07.846Z,72.28
2023-03-06T18:25:34.765Z,71.97
2023-03-06T18:28:01.648Z,71.61
2023-03-06T18:30:28.232Z,71.89
2023-03-06T18:32:54.854Z,71.86
2023-03-06T18:35:21.783Z,71.65
2023-03-06T18:37:48.525Z,72.16
2023-03-06T18:40:15.301Z,72.22
2023-03-06T18:42:41.875Z,71.69
2023-03-06T18:45:09.069Z,71.67
2023-03-06T18:47:35.720Z,71.72
2023-03-06T18:50:05.316Z,72.13
2023-03-06T18:52:33.743Z,71.61
2023-03-06T18:55:00.418Z,71.69
2023-03-06T18:57:29.300Z,72.37
2023-03-06T18:59:56.838Z,72.25
2023-03-06T19:02:23.384Z,72.37
2023-03-06T19:04:49.925Z,72.52
2023-03-06T19:07:16.713Z,72.44
2023-03-06T19:09:44.448Z,73.26
2023-03-06T19:12:11.582Z,73.82
2023-03-06T19:14:38.201Z,74.17
2023-03-06T19:17:05.179Z,74.30
2023-03-06T19:19:31.761Z,73.82
2023-03-06T19:21:58.578Z,75.51
2023-03-06T19:24:25.693Z,74.69
2023-03-06T19:26:52.346Z,75.31
2023-03-06T19:29:18.912Z,76.36
2023-03-06T19:31:45.581Z,77.47
2023-03-06T19:34:12.185Z,77.77
2023-03-06T19:36:40.756Z,77.65
2023-03-06T19:39:07.823Z,78.49
2023-03-06T19:41:34.545Z,78.66
2023-03-06T19:44:05.863Z,79.23
2023-03-06T19:46:32.796Z,77.93
2023-03-06T19:49:01.466Z,78.56
2023-03-06T19:51:28.924Z,78.22
2023-03-06T19:53:56.779Z,77.67
2023-03-06T19:56:26.161Z,78.15
2023-03-06T19:58:53.629Z,78.77
2023-03-06T20:01:22.715Z,78.11
2023-03-06T20:03:52.478Z,77.45
2023-03-06T20:06:20.241Z,78.94
2023-03-06T20:08:47.561Z,78.23
2023-03-06T20:11:26.148Z,78.03
2023-03-06T20:13:53.354Z,78.65
2023-03-06T20:16:20.324Z,78.85
2023-03-06T20:18:46.977Z,78.43
2023-03-06T20:21:15.209Z,78.54
2023-03-06T20:23:42.868Z,78.04
2023-03-06T20:26:12.115Z,79.33
2023-03-06T20:28:40.257Z,79.51
2023-03-06T20:31:09.057Z,79.97
2023-03-06T20:33:35.639Z,79.37
2023-03-06T20:36:02.350Z,80.85
2023-03-06T20:38:28.970Z,80.89
2023-03-06T20:40:57.778Z,80.19
2023-03-06T20:43:24.305Z,80.54
2023-03-06T20:46:03.596Z,80.02
2023-03-06T20:48:30.200Z,81.24
2023-03-06T20:51:08.621Z,81.17
2023-03-06T20:53:35.197Z,81.48
2023-03-06T20:56:01.885Z,82.41
2023-03-06T20:58:31.505Z,82.03
2023-03-06T21:00:59.953Z,81.93
2023-03-06T21:03:29.614Z,82.37
2023-03-06T21:05:56.504Z,82.27
2023-03-06T21:08:23.440Z,82.37
2023-03-06T21:10:50.663Z,82.89
2023-03-06T21:13:17.633Z,83.23
2023-03-06T21:15:47.315Z,82.75
2023-03-06T21:18:13.965Z,82.40
2023-03-06T21:20:41.309Z,81.94
2023-03-06T21:23:09.052Z,82.79
2023-03-06T21:25:35.798Z,82.92
2023-03-06T21:28:02.499Z,82.47
2023-03-06T21:30:29.401Z,82.50
2023-03-06T21:32:56.145Z,82.06
2023-03-06T21:35:22.788Z,82.94
2023-03-06T21:37:49.333Z,83.50
2023-03-06T21:40:16.081Z,82.84
2023-03-06T21:42:42.760Z,82.24
2023-03-06T21:45:09.837Z,83.46
2023-03-06T21:47:38.894Z,82.71
2023-03-06T21:50:10.062Z,82.26
2023-03-06T21:52:37.207Z,82.90
2023-03-06T21:55:04.321Z,83.52
2023-03-06T21:57:31.014Z,82.07
2023-03-06T21:59:57.821Z,82.01
2023-03-06T22:02:24.534Z,82.74
2023-03-06T22:04:52.593Z,83.46
2023-03-06T22:07:20.393Z,82.96
2023-03-06T22:09:47.539Z,83.56
2023-03-06T22:12:14.519Z,84.12
2023-03-06T22:14:43.602Z,85.17
2023-03-06T22:17:10.147Z,84.53
2023-03-06T22:19:36.705Z,85.53
2023-03-06T22:22:04.024Z,85.12
2023-03-06T22:24:32.005Z,85.56
2023-03-06T22:26:58.703Z,85.65
2023-03-06T22:29:25.808Z,85.56
2023-03-06T22:31:53.050Z,85.97
2023-03-06T22:34:19.690Z,86.29
2023-03-06T22:36:46.358Z,85.44
2023-03-06T22:39:13.512Z,85.93
2023-03-06T22:41:40.623Z,86.28
2023-03-06T22:44:07.406Z,86.49
2023-03-06T22:46:34.052Z,86.13
2023-03-06T22:49:01.249Z,86.23
2023-03-06T22:51:29.410Z,85.97
2023-03-06T22:53:55.954Z,86.12
2023-03-06T22:56:22.859Z,85.82
2023-03-06T22:58:49.553Z,86.44
2023-03-06T23:01:21.623Z,85.77
2023-03-06T23:03:50.663Z,86.31
2023-03-06T23:06:23.739Z,85.73
2023-03-06T23:08:55.877Z,86.39
2023-03-06T23:11:23.895Z,86.16
2023-03-06T23:13:50.472Z,85.94
2023-03-06T23:16:17.033Z,85.04
2023-03-06T23:18:43.624Z,85.57
2023-03-06T23:21:12.741Z,85.78
2023-03-06T23:23:40.123Z,86.11
2023-03-06T23:26:08.513Z,85.96
2023-03-06T23:28:35.174Z,86.14
2023-03-06T23:31:13.876Z,86.67
2023-03-06T23:33:40.560Z,87.33
2023-03-06T23:36:13.447Z,87.14
2023-03-06T23:38:40.626Z,87.18
2023-03-06T23:41:10.632Z,87.54
2023-03-06T23:43:37.282Z,87.11
2023-03-06T23:46:04.562Z,87.29
2023-03-06T23:48:31.192Z,87.46
2023-03-06T23:50:58.188Z,87.40
2023-03-06T23:53:24.803Z,88.34
2023-03-06T23:55:51.783Z,88.55
2023-03-06T23:58:19.933Z,88.52
